Time;durP1;ratioP1;P1;durP2;ratioP2;P2;SDS_P1;SDS_P2;PMS_P1;PMS_P2;Temp;Humidity;BMP_temperature;BMP_pressure;BME280_temperature;BME280_humidity;BME280_pressure;Samples;Min_cycle;Max_cycle;Signal;HPM_P1;HPM_P2
2022/09/17 00:00:01;;;;;;;2.08;0.65;;;;;;;12.04;75.01;99168.00;347597;28;1339;-67
2022/09/17 00:00:13;;;;;;;2.30;0.70;;;;;;;12.03;74.79;99167.13;347655;28;1070;-66
2022/09/17 00:00:25;;;;;;;1.20;0.70;;;;;;;12.03;75.17;99167.13;347935;28;1076;-66
2022/09/17 00:00:38;;;;;;;1.60;0.70;;;;;;;12.01;74.87;99170.72;347417;28;1074;-66
2022/09/17 00:00:51;;;;;;;0.90;0.60;;;;;;;12.02;74.96;99164.63;347918;28;1402;-67
2022/09/17 00:01:04;;;;;;;0.70;0.60;;;;;;;12.03;74.70;99172.34;346150;28;1011;-66
2022/09/17 00:01:19;;;;;;;0.60;0.60;;;;;;;12.00;74.60;99167.28;346361;28;1101;-67
2022/09/17 00:01:31;;;;;;;0.60;0.60;;;;;;;12.01;74.68;99165.53;346158;28;1055;-66
2022/09/17 00:01:44;;;;;;;0.73;0.60;;;;;;;12.02;74.91;99164.63;346314;28;1319;-67
2022/09/17 00:01:56;;;;;;;1.85;0.70;;;;;;;12.00;75.04;99167.28;346475;28;998;-67
2022/09/17 00:02:09;;;;;;;2.15;0.70;;;;;;;12.02;75.00;99169.84;345964;28;1046;-67
2022/09/17 00:02:21;;;;;;;1.45;0.68;;;;;;;12.03;74.99;99161.09;346517;28;1080;-67
2022/09/17 00:02:33;;;;;;;1.48;0.65;;;;;;;12.01;74.88;99168.13;346129;28;1345;-67
2022/09/17 00:02:52;;;;;;;1.77;0.60;;;;;;;11.97;74.63;99168.28;346024;28;1172;-66
2022/09/17 00:03:05;;;;;;;2.05;0.63;;;;;;;11.97;74.91;99173.50;346778;28;1252;-67
2022/09/17 00:03:17;;;;;;;2.72;0.65;;;;;;;11.95;74.79;99174.47;347347;28;1035;-67
2022/09/17 00:03:30;;;;;;;3.20;0.93;;;;;;;11.96;75.07;99169.19;347594;28;1059;-67
2022/09/17 00:03:44;;;;;;;2.03;1.00;;;;;;;11.93;75.20;99171.94;347313;28;1177;-67
2022/09/17 00:04:02;;;;;;;1.90;0.93;;;;;;;11.92;74.96;99170.25;347602;28;1066;-67
2022/09/17 00:04:14;;;;;;;2.03;0.70;;;;;;;11.94;75.05;99171.00;346224;28;1094;-67
2022/09/17 00:04:26;;;;;;;4.35;0.70;;;;;;;11.94;75.45;99171.00;345988;28;1180;-67
2022/09/17 00:04:38;;;;;;;3.83;0.70;;;;;;;11.92;75.49;99169.41;346015;28;1081;-66
2022/09/17 00:04:50;;;;;;;1.60;0.70;;;;;;;11.95;75.10;99169.25;345928;28;1033;-66
2022/09/17 00:05:03;;;;;;;1.27;0.80;;;;;;;12.03;74.78;99176.72;346301;28;1094;-67
2022/09/17 00:05:15;;;;;;;1.90;0.80;;;;;;;12.04;75.05;99168.84;346295;28;1005;-67
2022/09/17 00:05:27;;;;;;;1.85;0.73;;;;;;;11.93;74.75;99171.94;345123;28;1050;-65
2022/09/17 00:05:39;;;;;;;1.50;0.70;;;;;;;11.92;75.16;99175.44;344738;28;1192;-66
2022/09/17 00:05:59;;;;;;;0.70;0.60;;;;;;;11.91;74.89;99172.91;344657;28;1015;-65
2022/09/17 00:06:11;;;;;;;1.35;0.60;;;;;;;11.91;75.42;99171.16;344553;28;1017;-67
2022/09/17 00:06:24;;;;;;;2.47;0.70;;;;;;;11.89;74.99;99170.41;346390;28;1311;-66
2022/09/17 00:06:36;;;;;;;2.75;0.70;;;;;;;11.85;75.58;99176.63;346177;28;1043;-67
2022/09/17 00:06:48;;;;;;;1.88;0.70;;;;;;;11.81;75.71;99172.44;346291;28;1094;-66
2022/09/17 00:07:00;;;;;;;2.00;0.70;;;;;;;11.72;75.87;99170.28;345946;28;1024;-66
2022/09/17 00:07:12;;;;;;;1.95;0.68;;;;;;;11.69;76.04;99168.66;345951;28;1182;-65
2022/09/17 00:07:24;;;;;;;1.75;0.60;;;;;;;11.70;75.81;99170.34;346109;28;1176;-66
2022/09/17 00:07:36;;;;;;;1.00;0.60;;;;;;;11.68;75.97;99168.72;347445;28;1256;-67
2022/09/17 00:07:49;;;;;;;1.48;0.70;;;;;;;11.69;75.92;99173.00;347571;28;1240;-67
2022/09/17 00:08:01;;;;;;;1.50;0.70;;;;;;;11.72;76.16;99168.50;347464;28;871;-66
2022/09/17 00:08:13;;;;;;;1.65;0.80;;;;;;;11.69;76.08;99170.41;347903;28;1073;-66
2022/09/17 00:08:26;;;;;;;1.00;0.60;;;;;;;11.67;75.96;99174.81;347517;28;1251;-65
2022/09/17 00:08:40;;;;;;;1.05;0.60;;;;;;;11.73;76.23;99178.03;347560;28;1200;-66
2022/09/17 00:08:52;;;;;;;1.02;0.60;;;;;;;11.77;75.81;99166.56;347412;28;1187;-66
2022/09/17 00:09:06;;;;;;;1.75;0.70;;;;;;;11.78;75.88;99170.84;347496;28;1082;-67
2022/09/17 00:09:18;;;;;;;1.85;0.70;;;;;;;11.78;75.52;99168.22;347637;28;1105;-66
2022/09/17 00:09:30;;;;;;;1.80;0.75;;;;;;;11.80;75.27;99165.56;347691;28;1319;-66
2022/09/17 00:09:43;;;;;;;1.45;0.80;;;;;;;11.78;75.38;99172.59;347546;28;1200;-67
2022/09/17 00:09:55;;;;;;;1.20;0.80;;;;;;;11.76;75.42;99169.22;347550;28;1055;-67
2022/09/17 00:10:07;;;;;;;1.35;0.73;;;;;;;11.78;75.46;99168.22;347655;28;1111;-67
2022/09/17 00:10:19;;;;;;;2.38;0.70;;;;;;;11.77;75.80;99166.56;347569;28;1031;-67
2022/09/17 00:10:36;;;;;;;1.80;0.60;;;;;;;11.86;75.59;99170.50;347424;28;1285;-67
2022/09/17 00:10:48;;;;;;;0.70;0.70;;;;;;;11.93;75.13;99166.72;347378;28;1411;-67
2022/09/17 00:11:14;;;;;;;1.17;0.75;;;;;;;11.92;75.21;99170.25;347579;28;1058;-67
2022/09/17 00:11:29;;;;;;;1.10;0.80;;;;;;;11.86;75.04;99175.69;347680;28;1310;-66
2022/09/17 00:11:42;;;;;;;2.40;0.90;;;;;;;11.81;75.26;99167.22;347604;28;1116;-67
2022/09/17 00:11:54;;;;;;;3.50;0.90;;;;;;;11.77;75.32;99166.56;347574;28;1078;-67
2022/09/17 00:12:06;;;;;;;4.28;0.73;;;;;;;11.81;75.67;99167.22;347405;28;1053;-67
2022/09/17 00:12:18;;;;;;;3.45;0.70;;;;;;;11.88;75.78;99167.81;347608;28;1321;-66
2022/09/17 00:12:31;;;;;;;1.13;0.60;;;;;;;11.90;75.52;99160.81;347673;28;1124;-66
2022/09/17 00:12:43;;;;;;;0.90;0.60;;;;;;;11.92;75.18;99165.03;347598;28;1906;-66
2022/09/17 00:12:55;;;;;;;1.13;0.70;;;;;;;11.89;74.98;99165.19;347621;28;1204;-67
2022/09/17 00:13:08;;;;;;;1.00;0.70;;;;;;;11.90;75.08;99169.47;347606;28;1031;-67
2022/09/17 00:13:20;;;;;;;1.05;0.70;;;;;;;11.91;75.21;99163.34;347681;28;1276;-67
2022/09/17 00:13:32;;;;;;;1.50;0.75;;;;;;;11.92;75.28;99169.41;347352;28;1072;-67
2022/09/17 00:13:44;;;;;;;1.25;0.70;;;;;;;11.92;74.99;99170.25;347642;28;1110;-66
2022/09/17 00:13:59;;;;;;;0.93;0.70;;;;;;;11.96;75.26;99166.56;347592;28;1046;-67
2022/09/17 00:14:14;;;;;;;1.13;0.65;;;;;;;11.95;74.94;99164.91;347587;28;1793;-67
2022/09/17 00:14:26;;;;;;;1.25;0.60;;;;;;;11.87;75.46;99172.19;347524;28;1110;-66
2022/09/17 00:14:39;;;;;;;1.50;0.70;;;;;;;11.86;75.13;99172.25;347262;28;1198;-65
2022/09/17 00:14:51;;;;;;;1.90;0.70;;;;;;;11.82;75.43;99173.31;347354;28;1113;-66
2022/09/17 00:15:04;;;;;;;2.33;0.70;;;;;;;11.80;75.39;99161.19;347448;28;1027;-65
2022/09/17 00:15:16;;;;;;;2.67;0.70;;;;;;;11.78;75.23;99170.00;347857;28;1037;-65
2022/09/17 00:15:28;;;;;;;3.65;0.80;;;;;;;11.81;75.21;99167.22;347399;28;1304;-67
2022/09/17 00:15:45;;;;;;;4.00;0.80;;;;;;;11.80;75.12;99162.97;347695;28;1275;-67
2022/09/17 00:15:57;;;;;;;2.05;0.63;;;;;;;11.75;75.61;99162.31;347586;28;1042;-66
2022/09/17 00:16:10;;;;;;;1.13;0.63;;;;;;;11.77;75.80;99160.47;347384;28;1157;-67
2022/09/17 00:16:26;;;;;;;1.05;0.65;;;;;;;11.77;75.66;99160.47;347400;28;1109;-66
2022/09/17 00:16:41;;;;;;;1.40;0.73;;;;;;;11.75;75.47;99167.50;347405;28;1470;-66
2022/09/17 00:16:53;;;;;;;1.50;0.80;;;;;;;11.74;75.58;99164.06;347550;28;1404;-66
2022/09/17 00:17:05;;;;;;;1.65;0.80;;;;;;;11.72;75.52;99168.50;347615;28;1151;-67
2022/09/17 00:17:17;;;;;;;1.80;0.75;;;;;;;11.71;75.45;99166.84;347648;28;1042;-65
2022/09/17 00:17:29;;;;;;;1.63;0.70;;;;;;;11.72;75.31;99167.66;347629;28;1191;-67
2022/09/17 00:17:41;;;;;;;1.25;0.75;;;;;;;11.73;75.17;99169.34;347597;28;1145;-67
2022/09/17 00:17:56;;;;;;;1.00;0.60;;;;;;;11.71;75.55;99165.97;347882;28;1056;-67
2022/09/17 00:18:09;;;;;;;0.68;0.50;;;;;;;11.78;75.20;99165.63;347585;28;950;-67
2022/09/17 00:18:21;;;;;;;1.90;0.57;;;;;;;11.78;75.18;99167.38;347506;28;1102;-67
2022/09/17 00:18:35;;;;;;;2.67;0.60;;;;;;;11.80;75.28;99171.59;347510;28;1181;-67
2022/09/17 00:18:47;;;;;;;2.42;0.70;;;;;;;11.79;75.31;99169.06;347672;28;1236;-65
2022/09/17 00:19:00;;;;;;;1.55;0.70;;;;;;;11.78;75.37;99170.00;347534;28;1143;-66
2022/09/17 00:19:15;;;;;;;1.75;0.80;;;;;;;11.82;75.31;99168.09;347609;28;1373;-67
2022/09/17 00:19:27;;;;;;;1.80;0.60;;;;;;;11.84;74.87;99167.09;347601;28;1242;-65
2022/09/17 00:19:39;;;;;;;1.92;0.68;;;;;;;11.84;75.15;99167.09;346116;28;1019;-66
2022/09/17 00:19:51;;;;;;;1.88;0.73;;;;;;;11.84;74.70;99161.91;345892;28;1235;-67
2022/09/17 00:20:06;;;;;;;1.75;0.80;;;;;;;11.87;75.04;99166.97;346329;28;1038;-65
2022/09/17 00:20:18;;;;;;;2.20;0.70;;;;;;;11.86;75.05;99170.50;346243;28;1082;-67
2022/09/17 00:20:30;;;;;;;2.45;0.70;;;;;;;11.78;75.14;99168.22;345819;28;1036;-67
2022/09/17 00:20:45;;;;;;;1.60;0.60;;;;;;;11.76;75.58;99169.22;346314;28;1077;-66
2022/09/17 00:20:57;;;;;;;0.80;0.60;;;;;;;11.71;75.47;99171.16;346175;28;1306;-66
2022/09/17 00:21:16;;;;;;;1.30;0.77;;;;;;;11.72;75.39;99168.50;346341;28;1043;-66
2022/09/17 00:21:29;;;;;;;1.55;0.68;;;;;;;11.76;75.18;99169.22;346169;28;1091;-67
2022/09/17 00:21:42;;;;;;;1.25;0.65;;;;;;;11.78;74.91;99173.44;346557;28;1188;-67
2022/09/17 00:21:53;;;;;;;0.70;0.70;;;;;;;11.72;75.43;99173.72;347537;28;1025;-66
2022/09/17 00:22:05;;;;;;;1.92;0.70;;;;;;;11.73;75.36;99167.59;347579;28;1245;-67
2022/09/17 00:22:17;;;;;;;2.22;0.70;;;;;;;11.73;75.11;99166.75;347620;28;1214;-67
2022/09/17 00:22:29;;;;;;;2.45;0.70;;;;;;;11.71;75.19;99177.25;347470;28;870;-65
2022/09/17 00:22:41;;;;;;;1.50;0.70;;;;;;;11.65;75.59;99172.31;347516;28;1058;-67
2022/09/17 00:22:53;;;;;;;1.13;0.70;;;;;;;11.65;75.57;99171.44;347565;28;1031;-67
2022/09/17 00:23:05;;;;;;;1.73;0.75;;;;;;;11.69;75.39;99173.00;347576;28;1479;-67
2022/09/17 00:23:17;;;;;;;2.83;0.90;;;;;;;11.70;75.33;99170.34;347741;28;1076;-67
2022/09/17 00:23:29;;;;;;;2.35;0.85;;;;;;;11.76;75.68;99171.81;347585;28;1713;-66
2022/09/17 00:23:41;;;;;;;1.88;0.80;;;;;;;11.69;75.31;99173.00;347535;28;1035;-66
2022/09/17 00:23:56;;;;;;;0.82;0.55;;;;;;;11.74;75.49;99169.28;347620;28;1093;-67
2022/09/17 00:24:10;;;;;;;0.63;0.57;;;;;;;11.77;75.33;99170.88;347706;28;1058;-67
2022/09/17 00:24:22;;;;;;;1.20;0.63;;;;;;;11.72;74.75;99172.88;347533;28;1258;-66
2022/09/17 00:24:34;;;;;;;2.20;0.70;;;;;;;11.73;75.23;99164.13;347482;28;1343;-66
2022/09/17 00:24:46;;;;;;;3.05;0.77;;;;;;;11.74;74.94;99166.69;347233;28;1110;-65
2022/09/17 00:24:58;;;;;;;2.80;0.77;;;;;;;11.79;75.07;99169.06;347546;28;1047;-66
2022/09/17 00:25:10;;;;;;;1.60;0.73;;;;;;;11.80;75.03;99173.38;347504;28;1156;-67
2022/09/17 00:25:22;;;;;;;1.15;0.77;;;;;;;11.82;74.63;99174.16;347681;28;1282;-67
2022/09/17 00:25:37;;;;;;;1.55;0.80;;;;;;;11.84;74.57;99177.53;347572;28;1158;-66
2022/09/17 00:25:49;;;;;;;1.60;0.80;;;;;;;11.77;74.90;99171.75;347477;28;1084;-66
2022/09/17 00:26:04;;;;;;;1.33;0.70;;;;;;;11.68;74.79;99166.97;347595;28;1289;-66
2022/09/17 00:26:15;;;;;;;1.10;0.70;;;;;;;11.78;74.71;99177.81;347637;28;1063;-66
2022/09/17 00:26:29;;;;;;;0.80;0.80;;;;;;;11.76;74.55;99171.81;347428;28;1011;-67
2022/09/17 00:26:41;;;;;;;1.08;0.70;;;;;;;11.77;74.60;99176.09;347596;28;1131;-66
2022/09/17 00:26:53;;;;;;;1.48;0.65;;;;;;;11.79;74.85;99179.47;347622;28;1067;-66
2022/09/17 00:27:06;;;;;;;1.60;0.60;;;;;;;11.80;74.59;99170.78;347560;28;1023;-66
2022/09/17 00:27:17;;;;;;;1.75;0.60;;;;;;;11.77;74.46;99176.09;347609;28;1011;-66
2022/09/17 00:27:30;;;;;;;2.05;0.70;;;;;;;11.75;74.95;99170.13;347404;28;1148;-67
2022/09/17 00:27:42;;;;;;;1.90;0.77;;;;;;;11.77;74.79;99171.75;347633;28;1040;-66
2022/09/17 00:27:53;;;;;;;0.77;0.60;;;;;;;11.74;74.85;99181.47;347549;28;1176;-67
2022/09/17 00:28:05;;;;;;;1.20;0.60;;;;;;;11.69;75.19;99171.25;347573;28;1011;-66
2022/09/17 00:28:17;;;;;;;1.88;0.70;;;;;;;11.76;74.89;99171.81;347786;28;1159;-67
2022/09/17 00:28:29;;;;;;;1.70;0.70;;;;;;;11.79;75.01;99169.94;347620;28;1023;-67
2022/09/17 00:28:44;;;;;;;2.80;0.70;;;;;;;11.78;74.51;99173.44;347396;28;1053;-66
2022/09/17 00:28:57;;;;;;;2.30;0.60;;;;;;;11.82;74.51;99176.75;347564;28;1030;-66
2022/09/17 00:29:10;;;;;;;0.82;0.60;;;;;;;11.83;74.66;99181.06;347425;28;1168;-66
2022/09/17 00:29:22;;;;;;;1.52;0.70;;;;;;;11.82;74.61;99171.53;347539;28;1276;-67
2022/09/17 00:29:34;;;;;;;1.95;0.80;;;;;;;11.78;74.81;99173.44;347557;28;1038;-67
2022/09/17 00:29:47;;;;;;;2.20;0.98;;;;;;;11.77;74.72;99168.28;347656;28;1118;-67
2022/09/17 00:29:59;;;;;;;1.20;0.90;;;;;;;11.65;75.16;99168.84;347377;28;1059;-65
2022/09/17 00:30:12;;;;;;;1.05;0.73;;;;;;;11.70;75.36;99174.72;347659;28;1311;-67
2022/09/17 00:30:24;;;;;;;1.10;0.60;;;;;;;11.75;74.94;99168.38;347511;28;1193;-67
2022/09/17 00:30:42;;;;;;;1.20;0.65;;;;;;;11.77;74.60;99169.16;347132;28;1043;-67
2022/09/17 00:30:54;;;;;;;0.88;0.70;;;;;;;11.74;74.94;99176.25;347250;28;1330;-66
2022/09/17 00:31:09;;;;;;;2.35;1.00;;;;;;;11.74;74.87;99168.44;347726;28;1054;-67
2022/09/17 00:31:23;;;;;;;2.83;1.10;;;;;;;11.75;74.63;99173.59;347595;28;1076;-66
2022/09/17 00:31:35;;;;;;;1.52;0.77;;;;;;;11.78;74.99;99177.81;347964;28;1097;-67
2022/09/17 00:31:47;;;;;;;0.70;0.52;;;;;;;11.79;74.75;99169.06;347550;28;1144;-67
2022/09/17 00:32:00;;;;;;;0.70;0.60;;;;;;;11.81;74.58;99169.84;347609;28;1152;-67
2022/09/17 00:32:11;;;;;;;2.00;0.77;;;;;;;11.79;74.21;99175.13;347676;28;1083;-67
2022/09/17 00:32:23;;;;;;;2.53;0.80;;;;;;;11.80;74.31;99171.59;347637;28;1007;-67
2022/09/17 00:32:35;;;;;;;2.20;0.80;;;;;;;11.70;74.78;99178.16;347681;28;1018;-66
2022/09/17 00:32:47;;;;;;;1.50;0.80;;;;;;;11.72;74.55;99175.47;347426;28;1129;-67
2022/09/17 00:32:59;;;;;;;1.23;0.80;;;;;;;11.72;74.64;99170.28;347511;28;1254;-66
2022/09/17 00:33:14;;;;;;;1.27;0.70;;;;;;;11.72;74.83;99170.28;347529;28;1245;-65
2022/09/17 00:33:26;;;;;;;1.15;0.60;;;;;;;11.77;74.88;99176.97;347639;28;1019;-67
2022/09/17 00:33:38;;;;;;;1.45;0.60;;;;;;;11.82;74.43;99174.16;347659;28;1239;-66
2022/09/17 00:33:52;;;;;;;1.33;0.60;;;;;;;11.81;74.71;99172.44;346166;28;1122;-66
2022/09/17 00:34:05;;;;;;;1.05;0.65;;;;;;;11.84;74.26;99172.31;346204;28;1244;-67
2022/09/17 00:34:16;;;;;;;1.70;0.70;;;;;;;11.83;74.56;99175.84;346284;28;1055;-66
2022/09/17 00:34:28;;;;;;;1.70;0.70;;;;;;;11.76;74.39;99174.44;346154;28;1906;-66
2022/09/17 00:34:42;;;;;;;1.08;0.65;;;;;;;11.76;74.63;99174.44;346089;28;1035;-67
2022/09/17 00:34:54;;;;;;;1.52;0.70;;;;;;;11.70;74.89;99169.50;346189;28;1066;-66
2022/09/17 00:35:06;;;;;;;2.25;0.70;;;;;;;11.74;74.48;99177.09;345963;28;1013;-66
2022/09/17 00:35:18;;;;;;;1.90;0.70;;;;;;;11.76;74.39;99175.25;345834;28;1160;-66
2022/09/17 00:35:30;;;;;;;1.55;0.70;;;;;;;11.79;74.32;99174.28;346047;28;1019;-67
2022/09/17 00:35:43;;;;;;;1.20;0.60;;;;;;;11.81;74.58;99177.66;346199;28;1358;-67
2022/09/17 00:35:59;;;;;;;1.20;0.60;;;;;;;11.83;74.40;99175.84;346268;28;1350;-67
2022/09/17 00:36:14;;;;;;;1.90;0.70;;;;;;;11.84;74.40;99176.69;346033;28;1016;-66
2022/09/17 00:36:26;;;;;;;2.25;0.80;;;;;;;11.82;74.06;99176.75;346304;28;1081;-65
2022/09/17 00:36:38;;;;;;;2.50;0.82;;;;;;;11.77;74.54;99170.88;346054;28;1024;-66
2022/09/17 00:36:50;;;;;;;2.00;0.90;;;;;;;11.71;74.72;99176.38;346166;28;1075;-66
2022/09/17 00:37:05;;;;;;;2.20;0.70;;;;;;;11.70;74.70;99174.72;345999;28;1062;-66
2022/09/17 00:37:18;;;;;;;1.77;0.60;;;;;;;11.73;74.69;99174.56;346177;28;1055;-67
2022/09/17 00:37:30;;;;;;;1.10;0.60;;;;;;;11.73;74.22;99171.94;346145;28;1067;-67
2022/09/17 00:37:41;;;;;;;1.70;0.63;;;;;;;11.72;74.60;99178.09;344977;28;1033;-67
2022/09/17 00:37:53;;;;;;;1.67;0.70;;;;;;;11.74;74.28;99176.25;345114;28;1146;-67
2022/09/17 00:38:05;;;;;;;0.98;0.70;;;;;;;11.71;74.54;99171.16;344929;28;1129;-66
2022/09/17 00:38:17;;;;;;;0.70;0.60;;;;;;;11.64;74.83;99175.81;344949;28;1023;-66
2022/09/17 00:38:29;;;;;;;1.30;0.70;;;;;;;11.66;74.55;99174.00;345156;28;1062;-66
2022/09/17 00:38:42;;;;;;;1.38;0.70;;;;;;;11.69;74.75;99167.78;344753;28;1015;-67
2022/09/17 00:38:57;;;;;;;1.80;0.70;;;;;;;11.65;74.96;99181.88;344592;28;1230;-67
2022/09/17 00:39:11;;;;;;;1.67;0.60;;;;;;;11.59;75.01;99172.59;344842;28;1112;-67
2022/09/17 00:39:23;;;;;;;1.75;0.77;;;;;;;11.65;74.78;99181.88;344901;28;1028;-66
2022/09/17 00:39:35;;;;;;;2.30;0.80;;;;;;;11.66;75.13;99173.16;344802;28;1048;-67
2022/09/17 00:39:47;;;;;;;3.00;0.98;;;;;;;11.65;74.99;99172.31;345902;28;1337;-67
2022/09/17 00:39:59;;;;;;;3.13;0.90;;;;;;;11.66;74.85;99175.75;346124;28;1091;-66
2022/09/17 00:40:11;;;;;;;2.88;0.80;;;;;;;11.66;75.21;99173.16;346200;28;1171;-66
2022/09/17 00:40:23;;;;;;;1.20;0.60;;;;;;;11.57;75.28;99170.06;346198;28;1062;-67
2022/09/17 00:40:36;;;;;;;1.40;0.60;;;;;;;11.54;75.39;99169.34;345773;28;1251;-66
2022/09/17 00:40:48;;;;;;;1.33;0.70;;;;;;;11.51;75.29;99175.53;345993;28;1261;-66
2022/09/17 00:41:02;;;;;;;0.93;0.80;;;;;;;11.53;75.31;99172.84;345983;28;1037;-66
2022/09/17 00:41:14;;;;;;;2.00;0.85;;;;;;;11.54;75.24;99175.38;346235;28;1080;-67
2022/09/17 00:41:29;;;;;;;2.20;0.80;;;;;;;11.55;75.17;99173.59;346268;28;1019;-66
2022/09/17 00:41:42;;;;;;;1.80;0.80;;;;;;;11.59;75.40;99178.63;344455;28;1175;-67
2022/09/17 00:41:54;;;;;;;1.67;0.77;;;;;;;11.59;75.02;99173.44;344871;28;1293;-66
2022/09/17 00:42:09;;;;;;;1.10;0.68;;;;;;;11.62;74.83;99176.81;344846;28;1297;-67
2022/09/17 00:42:22;;;;;;;1.00;0.70;;;;;;;11.56;74.88;99173.53;344754;28;1032;-67
2022/09/17 00:42:33;;;;;;;2.38;0.70;;;;;;;11.60;74.85;99175.09;344769;28;1028;-66
2022/09/17 00:42:45;;;;;;;2.35;0.70;;;;;;;11.57;75.17;99179.63;344945;28;1034;-66
2022/09/17 00:42:57;;;;;;;2.13;0.70;;;;;;;11.54;75.32;99180.59;344644;28;1002;-65
2022/09/17 00:43:11;;;;;;;1.58;0.70;;;;;;;11.52;75.56;99177.19;344879;28;1101;-67
2022/09/17 00:43:42;;;;;;;1.70;0.70;;;;;;;11.55;75.20;99171.88;344769;28;1052;-66
2022/09/17 00:43:59;;;;;;;2.58;0.70;;;;;;;11.61;75.47;99181.19;346043;28;1327;-67
2022/09/17 00:44:48;;;;;;;3.20;0.80;;;;;;;11.61;75.23;99181.19;346211;28;1037;-67
2022/09/17 00:45:00;;;;;;;2.60;0.70;;;;;;;11.63;75.05;99183.69;346041;28;940;-68
2022/09/17 00:45:13;;;;;;;2.60;0.65;;;;;;;11.65;74.88;99187.06;346282;28;1283;-67
2022/09/17 00:45:26;;;;;;;2.75;0.70;;;;;;;11.59;75.15;99183.00;346246;28;1059;-66
2022/09/17 00:45:38;;;;;;;2.55;0.70;;;;;;;11.55;75.10;99179.69;345999;28;1015;-67
2022/09/17 00:45:58;;;;;;;3.38;0.70;;;;;;;11.52;75.35;99176.38;346209;28;1075;-67
2022/09/17 00:46:33;;;;;;;1.92;0.73;;;;;;;11.49;75.70;99185.16;346169;28;1050;-67
2022/09/17 00:46:46;;;;;;;1.83;0.77;;;;;;;11.52;75.49;99187.63;345962;28;1084;-67
2022/09/17 00:46:58;;;;;;;1.98;0.70;;;;;;;11.46;75.32;99182.69;346130;28;1022;-68
2022/09/17 00:47:43;;;;;;;2.00;0.70;;;;;;;11.47;75.71;99184.38;345956;28;1067;-67
2022/09/17 00:48:04;;;;;;;0.90;0.63;;;;;;;11.50;75.33;99176.41;341392;28;1094;-67
2022/09/17 00:48:16;;;;;;;2.55;0.82;;;;;;;11.53;75.50;99178.03;346472;28;1180;-67
2022/09/17 00:48:28;;;;;;;3.60;0.80;;;;;;;11.54;75.13;99177.97;346243;28;1031;-67
2022/09/17 00:48:40;;;;;;;3.25;0.90;;;;;;;11.54;75.39;99180.59;346108;28;1071;-67
2022/09/17 00:48:53;;;;;;;1.50;0.85;;;;;;;11.53;74.97;99178.91;346129;28;1237;-67
2022/09/17 00:49:20;;;;;;;0.95;0.70;;;;;;;11.55;75.22;99177.09;346034;28;1245;-67
2022/09/17 00:49:32;;;;;;;1.02;0.80;;;;;;;11.54;75.53;99179.75;346013;28;1027;-67
2022/09/17 00:49:46;;;;;;;3.22;0.80;;;;;;;11.53;75.14;99178.03;346141;28;1209;-67
2022/09/17 00:50:06;;;;;;;3.67;0.73;;;;;;;11.55;74.87;99181.41;346018;28;1274;-67
2022/09/17 00:50:35;;;;;;;2.42;0.70;;;;;;;11.55;74.84;99177.09;346271;28;1315;-66
2022/09/17 00:50:47;;;;;;;0.95;0.60;;;;;;;11.58;74.73;99179.53;346193;28;1710;-67
2022/09/17 00:51:00;;;;;;;0.60;0.60;;;;;;;11.59;75.08;99173.44;346288;28;1070;-67
2022/09/17 00:51:16;;;;;;;0.60;0.60;;;;;;;11.58;75.01;99176.94;345925;28;1094;-66
2022/09/17 00:51:41;;;;;;;0.80;0.60;;;;;;;11.64;74.94;99174.97;346103;28;1250;-67
2022/09/17 00:52:09;;;;;;;1.00;0.80;;;;;;;11.57;74.83;99177.84;346084;28;1329;-67
2022/09/17 00:52:31;;;;;;;3.85;0.77;;;;;;;11.57;74.88;99179.63;346259;28;1055;-67
2022/09/17 00:52:58;;;;;;;1.85;0.80;;;;;;;11.56;74.71;99173.53;346122;28;1055;-67
2022/09/17 00:53:14;;;;;;;1.38;0.80;;;;;;;11.58;74.75;99176.09;346259;28;1362;-68
2022/09/17 00:53:27;;;;;;;1.40;0.90;;;;;;;11.59;75.16;99172.59;346203;28;1027;-67
2022/09/17 00:53:39;;;;;;;1.52;0.80;;;;;;;11.57;75.32;99180.47;346283;28;1067;-65
2022/09/17 00:53:51;;;;;;;1.60;0.80;;;;;;;11.57;75.00;99175.25;345985;28;1083;-66
2022/09/17 00:54:06;;;;;;;1.67;0.80;;;;;;;11.59;75.32;99177.78;346043;28;1332;-67
2022/09/17 00:54:18;;;;;;;1.25;0.73;;;;;;;11.63;75.33;99183.69;346195;28;1085;-67
2022/09/17 00:54:32;;;;;;;1.15;0.70;;;;;;;11.65;75.02;99176.66;346199;28;1016;-67
2022/09/17 00:54:51;;;;;;;1.30;0.70;;;;;;;11.65;74.87;99177.53;346083;28;1298;-67
2022/09/17 00:55:07;;;;;;;1.55;0.80;;;;;;;11.73;74.64;99179.75;346488;28;1041;-65
2022/09/17 00:55:26;;;;;;;1.63;0.80;;;;;;;11.77;74.43;99176.09;346121;28;1070;-65
2022/09/17 00:55:42;;;;;;;1.95;0.70;;;;;;;11.75;74.54;99184.00;346196;28;1243;-66
2022/09/17 00:56:00;;;;;;;1.60;0.60;;;;;;;11.76;74.67;99183.06;346159;28;1007;-66
2022/09/17 00:56:25;;;;;;;0.93;0.70;;;;;;;11.75;74.48;99181.41;346029;28;1042;-66
2022/09/17 00:56:40;;;;;;;1.20;0.68;;;;;;;11.68;74.52;99181.75;346350;28;1483;-66
2022/09/17 00:56:52;;;;;;;0.63;0.60;;;;;;;11.69;74.33;99183.41;346201;28;1240;-67
2022/09/17 00:57:05;;;;;;;0.77;0.60;;;;;;;11.66;74.31;99179.19;345930;28;1051;-65
2022/09/17 00:57:17;;;;;;;1.08;0.65;;;;;;;11.66;74.78;99180.97;346288;28;1296;-67
2022/09/17 00:57:30;;;;;;;2.50;0.75;;;;;;;11.67;74.89;99186.09;346009;28;1152;-66
2022/09/17 00:57:44;;;;;;;2.80;0.85;;;;;;;11.69;74.86;99183.41;346271;28;1320;-66
2022/09/17 00:57:58;;;;;;;1.50;0.73;;;;;;;11.68;74.44;99184.34;346087;28;951;-66
2022/09/17 00:58:14;;;;;;;1.80;0.80;;;;;;;11.70;74.45;99185.13;346132;28;1068;-66
2022/09/17 00:58:27;;;;;;;1.80;0.80;;;;;;;11.71;74.64;99187.66;346210;28;1043;-66
2022/09/17 00:58:39;;;;;;;0.90;0.70;;;;;;;11.69;74.55;99188.63;346254;28;1074;-66
2022/09/17 00:58:53;;;;;;;0.85;0.65;;;;;;;11.67;74.71;99180.03;346553;28;992;-66
2022/09/17 00:59:06;;;;;;;1.08;0.60;;;;;;;11.63;74.65;99184.56;346152;28;1051;-66
2022/09/17 00:59:21;;;;;;;1.27;0.68;;;;;;;11.62;74.55;99187.22;346052;28;1039;-67
2022/09/17 00:59:33;;;;;;;2.00;0.90;;;;;;;11.66;74.74;99184.41;345994;28;1097;-66
2022/09/17 00:59:45;;;;;;;1.90;0.90;;;;;;;11.66;74.69;99188.78;346390;28;1056;-67
2022/09/17 00:59:58;;;;;;;2.22;0.95;;;;;;;11.64;74.71;99181.03;346254;28;1107;-67
2022/09/17 01:00:11;;;;;;;2.40;0.70;;;;;;;11.62;74.91;99187.22;346107;28;1056;-67
2022/09/17 01:00:25;;;;;;;2.70;0.75;;;;;;;11.63;74.29;99183.69;346267;28;1107;-67
2022/09/17 01:00:37;;;;;;;2.53;0.80;;;;;;;11.62;74.76;99180.25;346085;28;1047;-67
2022/09/17 01:00:50;;;;;;;2.45;0.80;;;;;;;11.64;74.83;99183.63;346189;28;1380;-67
2022/09/17 01:01:02;;;;;;;2.20;0.77;;;;;;;11.64;74.81;99186.22;346091;28;1392;-67
2022/09/17 01:01:14;;;;;;;1.35;0.70;;;;;;;11.68;74.38;99187.78;346131;28;1069;-67
2022/09/17 01:01:26;;;;;;;2.15;0.70;;;;;;;11.64;74.49;99194.03;346190;28;1052;-67
2022/09/17 01:01:38;;;;;;;2.13;0.68;;;;;;;11.66;74.64;99188.78;346157;28;1319;-67
2022/09/17 01:01:50;;;;;;;1.65;0.70;;;;;;;11.67;74.72;99190.44;346077;28;954;-67
2022/09/17 01:02:03;;;;;;;1.33;0.77;;;;;;;11.63;74.32;99183.69;346212;28;1159;-66
2022/09/17 01:02:16;;;;;;;1.30;0.70;;;;;;;11.66;74.44;99188.78;346077;28;1201;-67
2022/09/17 01:02:28;;;;;;;1.20;0.80;;;;;;;11.67;74.75;99186.09;346226;28;1039;-66
2022/09/17 01:02:41;;;;;;;1.50;0.70;;;;;;;11.69;74.49;99184.28;346086;28;1318;-66
2022/09/17 01:02:53;;;;;;;1.58;0.60;;;;;;;11.68;74.46;99186.94;346288;28;1294;-66
2022/09/17 01:03:06;;;;;;;1.88;0.80;;;;;;;11.63;74.89;99188.91;346093;28;1091;-65
2022/09/17 01:03:18;;;;;;;2.67;0.75;;;;;;;11.59;74.90;99189.03;346237;28;1050;-66
2022/09/17 01:03:31;;;;;;;2.30;0.73;;;;;;;11.60;74.85;99190.72;346238;28;1097;-67
2022/09/17 01:03:43;;;;;;;2.20;0.70;;;;;;;11.58;74.83;99189.94;345860;28;1074;-66
2022/09/17 01:03:55;;;;;;;1.30;0.68;;;;;;;11.63;74.54;99184.56;346072;28;1099;-66
2022/09/17 01:04:15;;;;;;;1.85;0.65;;;;;;;11.61;74.92;99188.97;346043;28;1274;-67
2022/09/17 01:04:27;;;;;;;2.00;0.90;;;;;;;11.62;74.71;99187.22;346193;28;1039;-66
2022/09/17 01:04:39;;;;;;;2.60;0.95;;;;;;;11.63;74.50;99184.56;345933;28;1153;-66
2022/09/17 01:04:51;;;;;;;2.20;0.80;;;;;;;11.67;74.82;99186.09;346093;28;1090;-66
2022/09/17 01:05:04;;;;;;;2.05;0.70;;;;;;;11.72;74.60;99185.91;346260;28;1667;-67
2022/09/17 01:05:16;;;;;;;0.95;0.70;;;;;;;11.71;74.56;99186.78;346075;28;1072;-67
2022/09/17 01:05:55;;;;;;;3.00;0.75;;;;;;;11.74;74.15;99186.66;346209;28;1179;-67
2022/09/17 01:06:19;;;;;;;2.08;0.70;;;;;;;11.69;74.39;99189.50;346046;28;1613;-67
2022/09/17 01:06:37;;;;;;;1.83;0.70;;;;;;;11.67;74.51;99187.84;346214;28;1222;-66
2022/09/17 01:06:58;;;;;;;2.85;0.80;;;;;;;11.72;74.12;99188.50;346115;28;1107;-67
2022/09/17 01:07:13;;;;;;;2.08;0.80;;;;;;;11.73;74.06;99184.97;346207;28;938;-66